createdAt,value
2022-10-18T00:00:11.101Z,94.88
2022-10-18T00:01:11.440Z,95.08
2022-10-18T00:02:11.659Z,95.08
2022-10-18T00:03:11.871Z,94.88
2022-10-18T00:04:12.190Z,94.82
2022-10-18T00:05:12.528Z,95.13
2022-10-18T00:06:12.833Z,94.92
2022-10-18T00:07:13.161Z,94.82
2022-10-18T00:08:13.470Z,94.92
2022-10-18T00:09:13.794Z,94.92
2022-10-18T00:10:14.102Z,95.33
2022-10-18T00:11:14.421Z,95.13
2022-10-18T00:12:14.741Z,95.13
2022-10-18T00:13:15.073Z,94.68
2022-10-18T00:14:15.382Z,94.07
2022-10-18T00:15:15.697Z,93.96
2022-10-18T00:16:16.009Z,94.68
2022-10-18T00:17:16.324Z,94.27
2022-10-18T00:18:16.647Z,93.86
2022-10-18T00:19:16.997Z,94.17
2022-10-18T00:20:17.198Z,94.31
2022-10-18T00:21:17.513Z,94.31
2022-10-18T00:22:17.851Z,94.31
2022-10-18T00:23:18.063Z,94.11
2022-10-18T00:24:18.383Z,94.01
2022-10-18T00:25:18.742Z,93.90
2022-10-18T00:26:18.958Z,94.31
2022-10-18T00:27:19.152Z,94.42
2022-10-18T00:28:19.481Z,94.52
2022-10-18T00:29:19.850Z,94.52
2022-10-18T00:30:20.037Z,94.52
2022-10-18T00:31:20.341Z,94.52
2022-10-18T00:32:20.665Z,94.82
2022-10-18T00:33:20.980Z,94.82
2022-10-18T00:34:21.292Z,95.03
2022-10-18T00:35:21.611Z,95.03
2022-10-18T00:36:21.957Z,95.13
2022-10-18T00:37:22.148Z,94.92
2022-10-18T00:38:22.466Z,95.03
2022-10-18T00:39:22.789Z,94.92
2022-10-18T00:40:23.114Z,94.92
2022-10-18T00:41:23.429Z,95.03
2022-10-18T00:42:23.747Z,95.23
2022-10-18T00:43:24.060Z,95.64
2022-10-18T00:44:24.368Z,95.33
2022-10-18T00:45:24.692Z,95.23
2022-10-18T00:46:24.895Z,95.33
2022-10-18T00:47:25.230Z,95.33
2022-10-18T00:48:25.436Z,95.13
2022-10-18T00:49:25.756Z,94.92
2022-10-18T00:50:26.054Z,95.03
2022-10-18T00:51:26.389Z,94.82
2022-10-18T02:56:27.843Z,96.22
2022-10-18T02:57:28.230Z,96.11
2022-10-18T02:58:28.360Z,96.01
2022-10-18T02:59:28.592Z,95.91
2022-10-18T03:00:28.867Z,95.70
2022-10-18T03:01:29.136Z,95.61
2022-10-18T03:02:29.368Z,95.70
2022-10-18T03:03:29.691Z,95.81
2022-10-18T03:04:29.952Z,95.61
2022-10-18T03:05:30.199Z,95.70
2022-10-18T03:06:30.413Z,95.40
2022-10-18T03:07:31.202Z,95.30
2022-10-18T03:08:30.946Z,94.89
2022-10-18T03:09:31.285Z,95.00
2022-10-18T03:10:31.673Z,95.20
2022-10-18T03:11:31.868Z,95.30
2022-10-18T03:12:32.181Z,95.30
2022-10-18T03:13:32.513Z,95.61
2022-10-18T03:14:32.717Z,95.70
2022-10-18T03:15:33.088Z,95.61
2022-10-18T03:16:33.295Z,95.61
2022-10-18T03:17:34.007Z,95.81
2022-10-18T03:18:33.933Z,95.70
2022-10-18T03:19:34.259Z,95.91
2022-10-18T03:20:34.490Z,96.11
2022-10-18T03:21:34.689Z,96.11
2022-10-18T03:22:35.007Z,96.22
2022-10-18T03:23:35.334Z,96.01
2022-10-18T03:24:35.648Z,95.91
2022-10-18T03:25:35.988Z,95.81
2022-10-18T03:26:36.306Z,96.01
2022-10-18T03:27:36.645Z,95.91
2022-10-18T03:28:37.083Z,96.01
2022-10-18T03:29:37.252Z,95.91
2022-10-18T03:30:37.455Z,95.91
2022-10-18T03:31:37.780Z,95.61
2022-10-18T03:32:38.087Z,95.50
2022-10-18T03:33:38.386Z,95.50
2022-10-18T03:34:38.730Z,95.50
2022-10-18T03:35:39.038Z,95.70
2022-10-18T03:36:39.358Z,95.61
2022-10-18T03:37:39.717Z,95.65
2022-10-18T03:38:39.923Z,95.65
2022-10-18T03:39:40.218Z,95.85
2022-10-18T03:40:40.559Z,95.95
2022-10-18T03:41:40.771Z,95.95
2022-10-18T03:42:41.087Z,95.95
2022-10-18T03:43:41.376Z,96.06
2022-10-18T03:44:41.685Z,96.06
2022-10-18T03:45:42.044Z,96.06
2022-10-18T03:46:42.233Z,96.06
2022-10-18T03:47:42.515Z,96.06
2022-10-18T03:48:42.840Z,96.06
2022-10-18T03:49:43.173Z,96.36
2022-10-18T03:50:43.520Z,96.51
2022-10-18T03:51:43.719Z,96.30
2022-10-18T03:52:44.039Z,96.41
2022-10-18T03:53:44.327Z,96.30
2022-10-18T03:54:44.625Z,96.41
2022-10-18T03:55:44.969Z,96.51
2022-10-18T03:56:45.278Z,96.41
2022-10-18T03:57:45.566Z,96.41
2022-10-18T03:58:45.855Z,96.41
2022-10-18T03:59:46.158Z,96.51
2022-10-18T04:00:46.507Z,96.51
2022-10-18T04:01:46.775Z,96.51
2022-10-18T04:02:49.673Z,96.30
2022-10-18T04:03:48.340Z,96.55
2022-10-18T04:04:47.585Z,96.66
2022-10-18T04:05:47.935Z,96.76
2022-10-18T04:06:48.127Z,96.76
2022-10-18T04:07:48.426Z,96.86
2022-10-18T04:08:48.740Z,97.06
2022-10-18T04:09:49.059Z,97.16
2022-10-18T04:10:49.396Z,97.16
2022-10-18T04:11:49.727Z,97.16
2022-10-18T04:12:50.039Z,97.16
2022-10-18T04:13:50.348Z,97.16
2022-10-18T04:14:50.672Z,97.16
2022-10-18T04:15:51.016Z,97.06
2022-10-18T04:16:51.329Z,97.16
2022-10-18T04:17:51.658Z,97.27
2022-10-18T04:18:51.979Z,97.16
2022-10-18T04:19:52.301Z,97.27
2022-10-18T04:20:52.636Z,97.16
2022-10-18T04:21:52.948Z,97.27
2022-10-18T04:22:53.252Z,97.06
2022-10-18T04:23:53.670Z,96.86
2022-10-18T04:24:53.768Z,96.76
2022-10-18T04:25:54.097Z,96.96
2022-10-18T04:26:54.319Z,96.96
2022-10-18T04:27:54.641Z,97.27
2022-10-18T04:28:54.970Z,97.27
2022-10-18T04:29:55.306Z,96.96
2022-10-18T04:30:55.636Z,96.76
2022-10-18T04:31:55.985Z,97.06
2022-10-18T04:32:56.187Z,97.06
2022-10-18T04:33:56.500Z,96.76
2022-10-18T04:34:56.850Z,96.66
2022-10-18T04:35:57.057Z,96.96
2022-10-18T04:36:57.407Z,97.21
2022-10-18T04:37:57.605Z,97.11
2022-10-18T04:38:57.944Z,97.11
2022-10-18T04:39:58.272Z,97.31
2022-10-18T04:40:58.599Z,97.21
2022-10-18T04:41:58.944Z,97.31
2022-10-18T04:42:59.137Z,97.31
2022-10-18T04:43:59.466Z,97.41
2022-10-18T04:44:59.694Z,97.41
2022-10-18T04:46:00.007Z,97.41
2022-10-18T04:47:00.326Z,97.41
2022-10-18T04:48:00.635Z,97.52
2022-10-18T04:49:00.987Z,97.52
2022-10-18T04:50:01.213Z,97.72
2022-10-18T04:51:01.557Z,97.62
2022-10-18T04:52:01.773Z,97.52
2022-10-18T04:53:02.095Z,97.41
2022-10-18T04:54:02.462Z,97.56
2022-10-18T04:55:02.649Z,97.66
2022-10-18T04:56:02.948Z,97.66
2022-10-18T04:57:03.273Z,97.77
2022-10-18T04:58:03.577Z,97.77
2022-10-18T04:59:03.937Z,98.07
2022-10-18T05:00:04.146Z,98.27
2022-10-18T05:01:04.461Z,98.27
2022-10-18T05:02:04.870Z,98.27
2022-10-18T05:03:05.008Z,98.27
2022-10-18T05:04:05.371Z,98.07
2022-10-18T05:05:08.060Z,97.97
2022-10-18T05:06:05.838Z,97.97
2022-10-18T05:07:06.167Z,97.87
2022-10-18T05:08:06.490Z,97.56
2022-10-18T05:09:06.854Z,97.56
2022-10-18T05:10:07.047Z,97.46
2022-10-18T05:11:07.381Z,97.46
2022-10-18T05:12:07.776Z,97.46
2022-10-18T05:13:07.978Z,97.46
2022-10-18T05:14:08.299Z,97.46
2022-10-18T05:15:08.626Z,97.56
2022-10-18T05:16:08.935Z,97.46
2022-10-18T05:17:09.281Z,97.16
2022-10-18T05:18:09.589Z,96.75
2022-10-18T05:19:09.911Z,96.95
2022-10-18T05:20:10.318Z,97.16
2022-10-18T05:21:10.499Z,97.36
2022-10-18T05:22:10.737Z,97.25
2022-10-18T05:23:10.967Z,97.16
2022-10-18T05:24:11.173Z,97.31
2022-10-18T05:25:11.470Z,97.36
2022-10-18T05:26:11.779Z,97.31
2022-10-18T05:27:12.129Z,97.31
2022-10-18T05:28:34.550Z,97.31
2022-10-18T05:29:13.774Z,97.31
2022-10-18T05:30:13.008Z,97.31
2022-10-18T05:31:13.226Z,97.11
2022-10-18T05:32:13.446Z,96.91
2022-10-18T05:33:15.568Z,96.91
2022-10-18T05:34:14.131Z,97.00
2022-10-18T05:35:14.331Z,96.80
2022-10-18T05:36:14.684Z,96.91
2022-10-18T05:37:14.876Z,97.11
2022-10-18T05:38:15.201Z,97.41
2022-10-18T05:39:15.524Z,97.52
2022-10-18T05:40:15.827Z,97.52
2022-10-18T05:41:16.690Z,97.41
2022-10-18T05:42:16.455Z,97.41
2022-10-18T05:43:16.774Z,97.37
2022-10-18T05:44:17.073Z,97.16
2022-10-18T05:45:17.426Z,96.76
2022-10-18T05:46:17.653Z,96.66
2022-10-18T05:47:17.852Z,96.76
2022-10-18T05:48:18.185Z,96.45
2022-10-18T05:49:18.499Z,96.25
2022-10-18T05:50:18.828Z,95.94
2022-10-18T05:51:19.965Z,95.79
2022-10-18T05:52:19.461Z,95.69
2022-10-18T05:54:21.105Z,95.59
2022-10-18T05:55:20.357Z,95.69
2022-10-18T05:56:20.695Z,95.79
2022-10-18T05:57:20.923Z,95.69
2022-10-18T05:58:21.242Z,95.90
2022-10-18T05:59:21.603Z,96.10
2022-10-18T06:00:21.809Z,96.41
2022-10-18T06:01:22.124Z,96.41
2022-10-18T06:02:22.499Z,96.20
2022-10-18T06:03:22.728Z,96.51
2022-10-18T06:04:23.068Z,96.20
2022-10-18T06:05:23.296Z,96.10
2022-10-18T06:06:23.516Z,95.90
2022-10-18T06:07:23.859Z,95.90
2022-10-18T06:08:24.055Z,95.90
2022-10-18T06:09:24.400Z,96.10
2022-10-18T06:10:24.718Z,96.20
2022-10-18T06:11:25.058Z,96.20
2022-10-18T06:12:25.387Z,96.06
2022-10-18T06:13:25.700Z,95.85
2022-10-18T06:14:26.066Z,95.85
2022-10-18T06:15:26.277Z,96.06
2022-10-18T06:16:32.024Z,96.15
2022-10-18T06:17:31.687Z,96.15
2022-10-18T06:18:27.127Z,95.95
2022-10-18T06:19:27.518Z,95.75
2022-10-18T06:20:27.719Z,95.85
2022-10-18T06:21:28.033Z,95.79
2022-10-18T06:22:28.371Z,95.85
2022-10-18T06:23:28.686Z,95.75
2022-10-18T06:24:29.044Z,95.65
2022-10-18T06:25:29.263Z,95.65
2022-10-18T06:26:29.469Z,95.95
2022-10-18T06:27:30.089Z,96.56
2022-10-18T06:28:30.071Z,96.56
2022-10-18T06:29:30.331Z,96.71
2022-10-18T06:30:30.654Z,96.61
2022-10-18T06:31:30.983Z,96.41
2022-10-18T06:32:31.310Z,96.41
2022-10-18T06:33:31.505Z,96.51
2022-10-18T06:34:31.826Z,96.36
2022-10-18T06:35:35.987Z,96.06
2022-10-18T06:36:32.482Z,96.06
2022-10-18T06:37:33.233Z,96.06
2022-10-18T06:38:33.049Z,95.95
2022-10-18T06:39:33.413Z,96.06
2022-10-18T06:40:33.621Z,96.01
2022-10-18T06:41:33.984Z,96.01
2022-10-18T06:42:34.571Z,95.61
2022-10-18T06:43:34.522Z,95.36
2022-10-18T06:44:34.841Z,95.25
2022-10-18T06:45:35.163Z,95.05
2022-10-18T06:46:35.521Z,94.95
2022-10-18T06:47:35.720Z,94.64
2022-10-18T06:48:36.044Z,94.74
2022-10-18T06:49:36.399Z,94.85
2022-10-18T06:50:36.597Z,94.85
2022-10-18T06:51:36.919Z,94.85
2022-10-18T06:52:37.248Z,94.85
2022-10-18T06:53:44.221Z,95.46
2022-10-18T06:54:38.758Z,95.86
2022-10-18T06:55:38.557Z,95.97
2022-10-18T06:56:38.302Z,95.51
2022-10-18T06:57:38.660Z,95.31
2022-10-18T06:58:38.864Z,95.21
2022-10-18T06:59:39.189Z,94.86
2022-10-18T07:00:39.538Z,94.45
2022-10-18T07:01:39.990Z,94.00
2022-10-18T07:02:40.127Z,93.19
2022-10-18T07:03:40.335Z,92.64
2022-10-18T07:04:40.671Z,92.13
2022-10-18T07:05:41.014Z,91.48
2022-10-18T07:06:41.334Z,90.93
2022-10-18T07:07:41.697Z,90.08
2022-10-18T07:08:41.913Z,89.53
2022-10-18T07:09:42.253Z,89.12
2022-10-18T07:10:42.598Z,88.27
2022-10-18T07:11:42.822Z,87.73
2022-10-18T07:12:43.043Z,87.02
2022-10-18T07:13:43.358Z,86.47
2022-10-18T07:14:43.654Z,86.33
2022-10-18T07:15:43.990Z,86.13
2022-10-18T07:16:44.205Z,85.58
2022-10-18T07:17:44.526Z,85.24
2022-10-18T07:18:44.850Z,84.73
2022-10-18T07:19:45.179Z,84.19
2022-10-18T07:20:45.547Z,83.88
2022-10-18T07:21:45.744Z,83.04
2022-10-18T07:22:46.058Z,82.43
2022-10-18T07:23:46.394Z,81.89
2022-10-18T07:24:46.707Z,81.82
2022-10-18T07:25:47.070Z,81.79
2022-10-18T07:26:47.268Z,81.52
2022-10-18T07:27:47.567Z,81.62
2022-10-18T07:28:47.935Z,81.62
2022-10-18T07:29:48.173Z,81.42
2022-10-18T07:30:48.517Z,81.62
2022-10-18T07:31:48.722Z,81.73
2022-10-18T07:32:49.040Z,81.62
2022-10-18T07:33:49.358Z,81.62
2022-10-18T07:34:49.687Z,81.79
2022-10-18T07:35:49.898Z,82.09
2022-10-18T07:36:51.010Z,81.73
2022-10-18T07:37:50.526Z,82.19
2022-10-18T07:38:50.835Z,81.79
2022-10-18T07:39:51.205Z,81.08
2022-10-18T07:40:51.415Z,80.88
2022-10-18T07:41:51.756Z,80.98
2022-10-18T07:42:52.086Z,80.84
2022-10-18T07:43:52.394Z,80.44
2022-10-18T07:44:52.722Z,80.54
2022-10-18T07:45:53.067Z,80.88
2022-10-18T07:46:53.258Z,80.98
2022-10-18T07:47:53.563Z,81.08
2022-10-18T07:48:53.943Z,81.42
2022-10-18T07:49:54.160Z,82.23
2022-10-18T07:50:54.478Z,82.33
2022-10-18T07:51:54.786Z,82.23
2022-10-18T07:52:55.126Z,82.67
2022-10-18T07:53:55.443Z,83.28
2022-10-18T07:54:55.761Z,83.48
2022-10-18T07:55:56.074Z,83.58
2022-10-18T07:56:56.412Z,83.88
2022-10-18T07:57:56.606Z,84.09
2022-10-18T07:58:56.933Z,83.88
2022-10-18T07:59:57.225Z,84.79
2022-10-18T08:00:57.510Z,84.49
2022-10-18T08:01:57.876Z,84.45
2022-10-18T08:02:58.101Z,83.74
2022-10-18T08:04:01.050Z,84.15
2022-10-18T08:04:58.738Z,83.54
2022-10-18T08:05:59.062Z,83.84
2022-10-18T08:06:59.391Z,84.75
2022-10-18T08:08:01.938Z,83.84
2022-10-18T08:09:00.003Z,84.41
2022-10-18T08:10:00.306Z,84.01
2022-10-18T08:11:00.620Z,84.21
2022-10-18T08:12:00.981Z,83.60
2022-10-18T08:13:01.172Z,82.86
2022-10-18T08:14:01.482Z,82.65
2022-10-18T08:15:01.769Z,83.00
2022-10-18T08:16:02.068Z,83.46
2022-10-18T08:17:02.417Z,82.79
2022-10-18T08:18:02.599Z,83.20
2022-10-18T08:19:02.922Z,83.20
2022-10-18T08:20:12.234Z,84.01
2022-10-18T08:21:04.479Z,83.50
2022-10-18T08:22:03.733Z,83.36
2022-10-18T08:23:04.072Z,83.16
2022-10-18T08:24:04.371Z,83.16
2022-10-18T08:25:04.714Z,82.42
2022-10-18T08:26:04.902Z,81.71
2022-10-18T08:27:05.214Z,80.97
2022-10-18T08:28:05.521Z,81.13
2022-10-18T08:30:07.150Z,79.28
2022-10-18T08:31:06.410Z,78.90
2022-10-18T08:32:06.723Z,77.36
2022-10-18T08:33:07.013Z,77.02
2022-10-18T08:34:07.341Z,75.88
2022-10-18T08:35:08.680Z,74.74
2022-10-18T08:36:07.920Z,74.10
2022-10-18T08:37:08.208Z,72.36
2022-10-18T08:38:08.618Z,72.23
2022-10-18T08:39:08.882Z,70.59
2022-10-18T08:40:09.085Z,70.06
2022-10-18T08:41:09.414Z,69.49
2022-10-18T08:42:09.721Z,68.59
2022-10-18T08:43:10.008Z,68.19
2022-10-18T08:44:10.367Z,67.16
2022-10-18T08:45:17.952Z,66.00
2022-10-18T08:46:11.862Z,64.57
2022-10-18T08:47:11.117Z,63.81
2022-10-18T08:48:11.443Z,62.78
2022-10-18T08:49:11.644Z,62.51
2022-10-18T08:50:11.971Z,63.01
2022-10-18T08:51:12.291Z,62.41
2022-10-18T08:52:12.627Z,62.12
2022-10-18T08:53:12.832Z,62.29
2022-10-18T08:54:13.153Z,61.85
2022-10-18T08:55:13.505Z,60.26
2022-10-18T08:56:13.709Z,60.50
2022-10-18T08:57:14.032Z,59.58
2022-10-18T08:58:14.361Z,58.83
2022-10-18T08:59:14.679Z,57.18
2022-10-18T09:00:15.053Z,56.53
2022-10-18T09:01:15.287Z,55.21
2022-10-18T09:02:15.493Z,54.62
2022-10-18T09:03:15.892Z,53.80
2022-10-18T09:04:16.096Z,52.83
2022-10-18T09:05:16.304Z,51.40
2022-10-18T09:06:19.827Z,50.63
2022-10-18T09:07:17.869Z,49.90
2022-10-18T09:08:17.145Z,48.17
2022-10-18T09:09:17.488Z,46.65
2022-10-18T09:10:17.862Z,46.18
2022-10-18T09:11:18.164Z,46.65
2022-10-18T09:12:18.421Z,45.94
2022-10-18T09:13:18.632Z,45.50
2022-10-18T09:14:18.976Z,45.57
2022-10-18T09:15:19.289Z,44.55
2022-10-18T09:16:19.614Z,44.13
2022-10-18T09:17:20.020Z,42.72
2022-10-18T09:18:20.212Z,42.41
2022-10-18T09:19:20.524Z,42.09
2022-10-18T09:20:20.858Z,41.39
2022-10-18T09:21:21.176Z,41.17
2022-10-18T09:22:21.505Z,40.08
2022-10-18T09:23:21.854Z,40.16
2022-10-18T09:24:22.053Z,39.86
2022-10-18T09:25:22.366Z,39.65
2022-10-18T09:26:22.718Z,39.43
2022-10-18T09:27:22.923Z,38.45
2022-10-18T09:28:23.242Z,38.82
2022-10-18T09:29:23.547Z,37.93
2022-10-18T09:30:23.864Z,37.63
2022-10-18T09:31:24.192Z,37.43
2022-10-18T09:32:24.496Z,37.43
2022-10-18T09:33:24.800Z,37.33
2022-10-18T09:34:25.159Z,37.62
2022-10-18T09:35:25.539Z,37.75
2022-10-18T09:36:25.595Z,38.18
2022-10-18T09:37:25.806Z,38.09
2022-10-18T09:39:26.354Z,38.61
2022-10-18T09:40:26.657Z,39.22
2022-10-18T09:41:27.022Z,39.61
2022-10-18T09:42:27.214Z,39.69
2022-10-18T09:43:27.528Z,38.61
2022-10-18T09:44:27.860Z,38.90
2022-10-18T09:45:28.222Z,38.71
2022-10-18T09:46:28.409Z,39.29
2022-10-18T09:47:28.738Z,39.51
2022-10-18T09:48:29.043Z,40.06
2022-10-18T09:49:29.379Z,40.98
2022-10-18T09:50:29.706Z,42.00
2022-10-18T09:51:30.025Z,43.41
2022-10-18T09:52:30.636Z,44.68
2022-10-18T09:53:30.569Z,46.22
2022-10-18T09:54:30.930Z,48.39
2022-10-18T09:55:31.226Z,50.01
2022-10-18T09:56:31.527Z,51.70
2022-10-18T09:57:32.040Z,53.70
2022-10-18T09:58:32.073Z,54.35
2022-10-18T09:59:32.400Z,56.13
2022-10-18T10:00:32.727Z,55.47
2022-10-18T10:01:33.024Z,56.88
2022-10-18T10:02:33.407Z,55.69
2022-10-18T10:03:34.366Z,56.64
2022-10-18T10:04:33.840Z,57.76
2022-10-18T10:05:34.148Z,58.58
2022-10-18T10:06:34.442Z,60.33
2022-10-18T10:07:35.132Z,60.96
2022-10-18T10:08:35.008Z,62.48
2022-10-18T10:09:35.299Z,61.22
2022-10-18T10:10:35.593Z,61.94
2022-10-18T10:11:35.858Z,62.87
2022-10-18T10:12:36.201Z,64.07
2022-10-18T10:13:36.490Z,64.67
2022-10-18T10:14:36.811Z,64.07
2022-10-18T10:15:39.434Z,64.17
2022-10-18T10:16:38.405Z,64.57
2022-10-18T10:17:37.654Z,64.17
2022-10-18T10:18:37.958Z,65.04
2022-10-18T10:19:38.231Z,62.21
2022-10-18T10:20:38.532Z,61.58
2022-10-18T10:21:38.783Z,61.25
2022-10-18T10:22:39.106Z,61.16
2022-10-18T10:23:39.406Z,60.76
2022-10-18T10:24:39.724Z,61.06
2022-10-18T10:25:40.037Z,60.83
2022-10-18T10:26:40.371Z,60.43
2022-10-18T10:27:40.662Z,59.61
2022-10-18T10:28:41.000Z,60.08
2022-10-18T10:29:44.705Z,58.62
2022-10-18T10:30:41.483Z,55.87
2022-10-18T10:31:41.825Z,55.46
2022-10-18T10:32:42.007Z,52.61
2022-10-18T10:33:42.306Z,49.84
2022-10-18T10:34:44.807Z,48.91
2022-10-18T10:35:52.952Z,48.00
2022-10-18T10:36:44.275Z,47.66
2022-10-18T10:37:43.536Z,47.46
2022-10-18T10:38:43.865Z,46.97
2022-10-18T10:39:51.230Z,47.16
2022-10-18T10:40:45.486Z,46.75
2022-10-18T10:41:44.741Z,46.75
2022-10-18T10:42:45.064Z,47.49
2022-10-18T10:43:45.401Z,44.89
2022-10-18T10:44:45.599Z,44.23
2022-10-18T10:45:45.918Z,42.60
2022-10-18T10:46:46.247Z,42.03
2022-10-18T10:47:46.546Z,40.00
2022-10-18T10:48:46.866Z,38.38
2022-10-18T10:49:47.198Z,37.89
2022-10-18T10:50:47.957Z,37.60
2022-10-18T10:51:53.721Z,37.18
2022-10-18T10:52:49.041Z,36.67
2022-10-18T10:53:48.286Z,36.75
2022-10-18T10:54:51.521Z,36.05
2022-10-18T10:55:48.904Z,35.64
2022-10-18T10:56:49.207Z,35.27
2022-10-18T10:57:49.465Z,35.25
2022-10-18T10:58:49.838Z,35.58
2022-10-18T10:59:50.078Z,35.25
2022-10-18T11:00:50.385Z,34.88
2022-10-18T11:01:50.705Z,34.88
2022-10-18T11:02:59.412Z,34.58
2022-10-18T11:03:52.238Z,34.85
2022-10-18T11:04:51.507Z,34.44
2022-10-18T11:05:51.804Z,34.27
2022-10-18T11:06:52.169Z,33.67
2022-10-18T11:07:52.356Z,33.46
2022-10-18T11:08:52.675Z,33.65
2022-10-18T11:09:52.988Z,33.64
2022-10-18T11:10:53.327Z,33.06
2022-10-18T11:11:53.571Z,33.42
2022-10-18T11:12:53.783Z,33.22
2022-10-18T11:14:07.303Z,33.01
2022-10-18T11:14:55.440Z,33.23
2022-10-18T11:15:54.729Z,32.84
2022-10-18T11:16:55.073Z,32.44
2022-10-18T11:18:55.640Z,32.34
2022-10-18T11:19:55.979Z,31.87
2022-10-18T11:20:56.283Z,33.69
2022-10-18T11:21:56.587Z,33.65
2022-10-18T11:22:56.880Z,32.97
2022-10-18T11:23:57.194Z,32.36
2022-10-18T11:24:57.531Z,32.96
2022-10-18T11:25:57.898Z,32.96
2022-10-18T11:26:58.104Z,32.26
2022-10-18T11:27:58.492Z,32.57
2022-10-18T11:28:58.807Z,32.47
2022-10-18T11:29:59.003Z,32.49
2022-10-18T11:30:59.347Z,32.59
2022-10-18T11:31:59.662Z,33.26
2022-10-18T11:32:59.977Z,33.11
2022-10-18T11:34:15.573Z,33.61
2022-10-18T11:35:01.581Z,33.67
2022-10-18T11:36:03.783Z,32.86
2022-10-18T11:37:26.263Z,32.44
2022-10-18T11:38:02.382Z,31.94
2022-10-18T11:39:01.631Z,31.74
2022-10-18T11:40:01.939Z,31.34
2022-10-18T11:41:02.263Z,31.41
2022-10-18T11:42:02.602Z,30.73
2022-10-18T11:43:02.905Z,31.31
2022-10-18T11:44:03.787Z,31.15
2022-10-18T11:45:03.539Z,31.34
2022-10-18T11:46:03.878Z,32.04
2022-10-18T11:47:04.054Z,31.47
2022-10-18T11:48:04.357Z,31.74
2022-10-18T11:49:04.661Z,31.65
2022-10-18T11:50:04.955Z,31.67
2022-10-18T11:51:05.264Z,31.87
2022-10-18T11:52:09.369Z,32.26
2022-10-18T11:53:05.880Z,31.57
2022-10-18T11:54:06.200Z,31.26
2022-10-18T11:55:06.392Z,31.52
2022-10-18T11:56:06.932Z,30.46
2022-10-18T11:57:07.397Z,30.47
2022-10-18T11:58:07.228Z,31.46
2022-10-18T11:59:07.515Z,32.29
2022-10-18T12:00:07.861Z,33.29
2022-10-18T12:01:08.220Z,34.01
2022-10-18T12:02:08.328Z,34.74
2022-10-18T12:03:08.697Z,34.47
2022-10-18T12:04:08.933Z,34.92
2022-10-18T12:05:23.139Z,34.06
2022-10-18T12:06:10.554Z,33.75
2022-10-18T12:07:09.796Z,34.43
2022-10-18T12:08:10.098Z,33.20
2022-10-18T12:09:10.426Z,32.10
2022-10-18T12:10:10.723Z,31.57
2022-10-18T12:11:10.863Z,30.86
2022-10-18T12:12:11.201Z,30.76
2022-10-18T12:13:11.505Z,30.86
2022-10-18T12:14:11.849Z,30.98
2022-10-18T12:15:12.026Z,31.50
2022-10-18T12:16:13.081Z,32.09
2022-10-18T12:17:40.170Z,32.07
2022-10-18T12:18:13.900Z,31.26
2022-10-18T12:19:13.181Z,30.46
2022-10-18T12:20:13.413Z,30.36
2022-10-18T12:21:13.707Z,30.73
2022-10-18T12:22:14.052Z,30.11
2022-10-18T12:23:14.364Z,29.56
2022-10-18T12:24:14.713Z,29.35
2022-10-18T12:25:15.022Z,29.74
2022-10-18T12:26:15.334Z,29.03
2022-10-18T12:27:15.558Z,28.15
2022-10-18T12:28:15.888Z,27.67
2022-10-18T12:29:16.230Z,28.26
2022-10-18T12:30:16.529Z,28.84
2022-10-18T12:31:16.864Z,28.64
2022-10-18T12:32:17.176Z,32.18
2022-10-18T12:33:27.840Z,35.02
2022-10-18T12:34:18.842Z,36.24
2022-10-18T12:35:18.092Z,36.75
2022-10-18T12:36:18.381Z,37.45
2022-10-18T12:37:18.665Z,39.07
2022-10-18T12:38:18.973Z,40.33
2022-10-18T12:39:29.046Z,42.19
2022-10-18T12:40:21.572Z,40.31
2022-10-18T12:41:19.884Z,40.58
2022-10-18T12:42:20.193Z,40.45
2022-10-18T12:43:20.491Z,41.29
2022-10-18T12:44:20.830Z,43.46
2022-10-18T12:45:21.014Z,45.10
2022-10-18T12:46:21.356Z,46.11
2022-10-18T12:47:21.544Z,46.75
2022-10-18T12:48:21.859Z,47.66
2022-10-18T12:49:22.141Z,48.60
2022-10-18T12:50:22.414Z,49.32
2022-10-18T12:51:22.713Z,49.94
2022-10-18T12:52:22.998Z,50.36
2022-10-18T12:53:23.311Z,51.45
2022-10-18T12:54:23.599Z,50.98
2022-10-18T12:55:23.892Z,51.70
2022-10-18T12:56:25.243Z,52.12
2022-10-18T12:57:24.452Z,52.39
2022-10-18T12:58:24.801Z,52.39
2022-10-18T12:59:24.982Z,52.02
2022-10-18T13:00:25.314Z,51.30
2022-10-18T13:01:25.669Z,50.18
2022-10-18T13:02:25.881Z,48.82
2022-10-18T13:03:26.184Z,46.63
2022-10-18T13:04:26.500Z,46.95
2022-10-18T13:05:41.091Z,47.15
2022-10-18T13:06:28.184Z,47.25
2022-10-18T13:07:27.434Z,46.00
2022-10-18T13:08:27.749Z,43.42
2022-10-18T13:09:28.858Z,40.43
2022-10-18T13:10:28.335Z,37.77
2022-10-18T13:11:28.672Z,36.60
2022-10-18T13:12:28.903Z,34.06
2022-10-18T13:13:39.743Z,32.05
2022-10-18T13:14:30.528Z,31.24
2022-10-18T13:15:33.477Z,32.59
2022-10-18T13:16:30.117Z,34.31
2022-10-18T13:17:30.848Z,34.08
2022-10-18T13:18:34.594Z,34.09
2022-10-18T13:19:30.977Z,33.67
2022-10-18T13:20:31.295Z,32.24
2022-10-18T13:21:31.599Z,31.31
2022-10-18T13:22:31.959Z,30.49
2022-10-18T13:23:33.981Z,29.81
2022-10-18T13:24:32.405Z,29.70
2022-10-18T13:25:32.720Z,30.32
2022-10-18T13:26:36.917Z,30.13
2022-10-18T13:27:42.481Z,29.61
2022-10-18T13:28:34.608Z,30.24
2022-10-18T13:29:33.868Z,32.40
2022-10-18T13:30:38.006Z,35.95
2022-10-18T13:31:34.504Z,38.29
2022-10-18T13:32:35.178Z,39.74
2022-10-18T13:33:35.134Z,41.19
2022-10-18T13:34:35.442Z,41.29
2022-10-18T13:35:35.739Z,40.72
2022-10-18T13:36:36.057Z,38.57
2022-10-18T13:37:36.367Z,36.11
2022-10-18T13:38:36.711Z,34.56
2022-10-18T13:39:36.887Z,32.84
2022-10-18T13:40:37.171Z,32.02
2022-10-18T13:41:37.527Z,31.65
2022-10-18T13:42:37.860Z,31.87
2022-10-18T13:43:38.046Z,31.76
2022-10-18T13:44:38.375Z,32.34
2022-10-18T13:45:38.691Z,31.76
2022-10-18T13:46:39.003Z,31.76
2022-10-18T13:47:39.336Z,31.85
2022-10-18T13:48:39.530Z,31.66
2022-10-18T13:49:39.874Z,32.70
2022-10-18T13:50:40.210Z,35.16
2022-10-18T13:51:40.505Z,36.47
2022-10-18T13:52:40.809Z,35.33
2022-10-18T13:53:41.175Z,35.28
2022-10-18T13:54:41.361Z,33.77
2022-10-18T13:55:41.670Z,33.07
2022-10-18T13:56:41.922Z,33.17
2022-10-18T13:57:42.261Z,33.07
2022-10-18T13:58:48.759Z,33.58
2022-10-18T13:59:43.882Z,34.19
2022-10-18T14:00:48.366Z,35.41
2022-10-18T14:01:44.504Z,37.26
2022-10-18T14:02:51.454Z,39.53
2022-10-18T14:03:56.793Z,41.98
2022-10-18T14:04:47.108Z,44.25
2022-10-18T14:05:44.659Z,46.59
2022-10-18T14:06:44.959Z,46.96
2022-10-18T14:07:45.246Z,46.64
2022-10-18T14:08:45.586Z,45.26
2022-10-18T14:09:47.182Z,46.29
2022-10-18T14:11:01.485Z,47.22
2022-10-18T14:11:47.474Z,48.03
2022-10-18T14:12:46.736Z,48.09
2022-10-18T14:13:47.068Z,46.81
2022-10-18T14:14:47.376Z,47.20
2022-10-18T14:15:47.671Z,48.21
2022-10-18T14:16:47.975Z,48.48
2022-10-18T14:17:48.294Z,50.29
2022-10-18T14:18:48.572Z,49.99
2022-10-18T14:19:48.889Z,49.47
2022-10-18T14:21:08.652Z,49.37
2022-10-18T14:21:50.501Z,49.05
2022-10-18T14:22:49.799Z,49.35
2022-10-18T14:23:49.999Z,48.75
2022-10-18T14:24:50.294Z,48.97
2022-10-18T14:25:50.595Z,49.89
2022-10-18T14:26:50.889Z,49.99
2022-10-18T14:27:53.758Z,50.48
2022-10-18T14:29:00.337Z,50.18
2022-10-18T14:29:52.887Z,50.41
2022-10-18T14:30:52.123Z,50.93
2022-10-18T14:31:52.402Z,51.92
2022-10-18T14:32:52.686Z,52.73
2022-10-18T14:33:57.346Z,51.84
2022-10-18T14:34:55.763Z,52.17
2022-10-18T14:35:54.561Z,52.89
2022-10-18T14:36:53.941Z,53.73
2022-10-18T14:37:54.062Z,54.65
2022-10-18T14:38:54.280Z,54.95
2022-10-18T14:39:54.584Z,54.75
2022-10-18T14:40:54.888Z,55.55
2022-10-18T14:41:55.212Z,55.85
2022-10-18T14:42:55.509Z,56.74
2022-10-18T14:43:55.824Z,55.85
2022-10-18T14:44:56.663Z,54.95
2022-10-18T14:45:56.416Z,55.85
2022-10-18T14:46:56.756Z,54.85
2022-10-18T14:47:57.106Z,54.85
2022-10-18T14:48:57.307Z,56.04
2022-10-18T14:49:57.599Z,56.34
2022-10-18T14:50:57.899Z,55.77
2022-10-18T14:51:58.227Z,56.37
2022-10-18T14:52:58.546Z,56.37
2022-10-18T14:53:58.835Z,56.47
2022-10-18T14:54:59.118Z,57.06
2022-10-18T14:55:59.422Z,56.70
2022-10-18T14:56:59.722Z,56.79
2022-10-18T14:58:00.048Z,56.92
2022-10-18T14:59:00.332Z,57.32
2022-10-18T15:00:00.632Z,57.02
2022-10-18T15:01:00.955Z,57.75
2022-10-18T15:02:01.169Z,58.37
2022-10-18T15:03:01.505Z,59.00
2022-10-18T15:04:01.826Z,59.82